createdAt,value
2023-04-18T00:00:34.875Z,14.7
2023-04-18T00:06:18.775Z,15
2023-04-18T00:12:02.731Z,14.1
2023-04-18T00:17:47.804Z,14.4
2023-04-18T00:23:31.809Z,15.2
2023-04-18T00:29:15.630Z,15.7
2023-04-18T00:34:59.651Z,14.9
2023-04-18T00:40:43.894Z,15.9
2023-04-18T00:46:27.906Z,16.3
2023-04-18T00:52:12.112Z,15.7
2023-04-18T00:57:56.574Z,15.6
2023-04-18T01:03:42.349Z,16.2
2023-04-18T01:09:26.810Z,15.7
2023-04-18T01:15:11.541Z,16.3
2023-04-18T01:20:56.405Z,17
2023-04-18T01:26:45.324Z,17.6
2023-04-18T01:32:29.488Z,15.3
2023-04-18T01:38:13.658Z,15.6
2023-04-18T01:43:58.527Z,16.3
2023-04-18T01:49:42.591Z,15.8
2023-04-18T01:55:28.734Z,15.5
2023-04-18T02:01:13.027Z,17.3
2023-04-18T02:06:57.246Z,15.9
2023-04-18T02:12:41.143Z,13.4
2023-04-18T02:18:25.328Z,15.6
2023-04-18T02:24:09.587Z,15.7
2023-04-18T02:29:53.710Z,14.6
2023-04-18T02:35:37.688Z,13.6
2023-04-18T02:41:21.666Z,14.9
2023-04-18T02:47:05.625Z,15.7
2023-04-18T02:52:49.568Z,15.2
2023-04-18T02:58:33.682Z,14.4
2023-04-18T03:04:18.482Z,14.9
2023-04-18T03:10:02.465Z,15.1
2023-04-18T03:15:46.827Z,14.5
2023-04-18T03:21:30.737Z,14.5
2023-04-18T03:27:16.840Z,14.6
2023-04-18T03:33:01.244Z,14.2
2023-04-18T03:38:45.393Z,14.4
2023-04-18T03:44:29.291Z,15.9
2023-04-18T03:50:14.014Z,13.1
2023-04-18T03:55:58.021Z,13.6
2023-04-18T04:01:42.241Z,13.7
2023-04-18T04:07:26.510Z,15
2023-04-18T04:13:10.381Z,13.5
2023-04-18T04:18:54.343Z,15
2023-04-18T04:24:38.450Z,13.9
2023-04-18T04:30:22.639Z,13.4
2023-04-18T04:36:06.694Z,13.1
2023-04-18T04:41:50.585Z,14.4
2023-04-18T04:47:34.650Z,13.8
2023-04-18T04:53:18.439Z,15.2
2023-04-18T04:59:02.743Z,12.7
2023-04-18T05:04:48.688Z,14
2023-04-18T05:10:32.743Z,12.7
2023-04-18T05:16:18.026Z,12.2
2023-04-18T05:22:02.851Z,12.4
2023-04-18T05:27:46.961Z,14.2
2023-04-18T05:33:30.947Z,11.5
2023-04-18T05:39:14.932Z,11.8
2023-04-18T05:44:59.012Z,12.8
2023-04-18T05:50:43.198Z,13.1
2023-04-18T05:56:27.336Z,13.1
2023-04-18T06:02:11.598Z,12.3
2023-04-18T06:07:55.803Z,13.4
2023-04-18T06:13:39.979Z,10.9
2023-04-18T06:19:23.953Z,10.7
2023-04-18T06:25:08.240Z,12.5
2023-04-18T06:30:53.404Z,12.8
2023-04-18T06:36:37.299Z,12
2023-04-18T06:42:24.797Z,11.8
2023-04-18T06:48:09.900Z,10.9
2023-04-18T06:53:54.092Z,13
2023-04-18T06:59:38.223Z,11.3
2023-04-18T07:05:22.513Z,11.3
2023-04-18T07:11:06.676Z,12
2023-04-18T07:16:52.017Z,11.4
2023-04-18T07:22:36.125Z,12
2023-04-18T07:28:19.862Z,10.9
2023-04-18T07:34:04.824Z,12.4
2023-04-18T07:39:48.884Z,10
2023-04-18T07:45:32.852Z,11.9
2023-04-18T07:51:16.994Z,10.6
2023-04-18T07:57:03.032Z,11.5
2023-04-18T08:02:48.625Z,10.5
2023-04-18T08:08:32.591Z,11.3
2023-04-18T08:14:17.463Z,9.9
2023-04-18T08:20:01.406Z,9
2023-04-18T08:25:45.688Z,8.9
2023-04-18T08:31:30.130Z,9.8
2023-04-18T08:37:14.060Z,8.6
2023-04-18T08:43:00.637Z,9
2023-04-18T08:48:44.804Z,9.1
2023-04-18T08:54:30.857Z,7.7
2023-04-18T09:00:15.980Z,9
2023-04-18T09:06:12.784Z,7.7
2023-04-18T09:12:02.120Z,8
2023-04-18T09:17:47.279Z,8.5
2023-04-18T09:23:31.318Z,7.2
2023-04-18T09:29:15.798Z,8.6
2023-04-18T09:35:04.527Z,7.7
2023-04-18T09:40:49.928Z,7.4
2023-04-18T09:46:34.732Z,7.5
2023-04-18T09:52:21.132Z,7.8
2023-04-18T09:58:07.143Z,8.1
2023-04-18T10:03:53.902Z,7.4
2023-04-18T10:09:38.417Z,7.6
2023-04-18T10:15:24.402Z,8
2023-04-18T10:21:08.880Z,7.1
2023-04-18T10:26:53.401Z,6.7
2023-04-18T10:32:38.384Z,5.5
2023-04-18T10:38:26.070Z,7.2
2023-04-18T10:44:20.320Z,7.6
2023-04-18T10:50:09.598Z,7.4
2023-04-18T10:55:57.638Z,6.7
2023-04-18T11:01:46.762Z,6.4
2023-04-18T11:07:39.996Z,7.4
2023-04-18T11:13:24.058Z,6.3
2023-04-18T11:19:13.126Z,6.3
2023-04-18T11:25:00.552Z,7
2023-04-18T11:30:48.002Z,5.9
2023-04-18T11:36:32.318Z,7.4
2023-04-18T11:42:16.678Z,5.4
2023-04-18T11:48:03.073Z,6.5
2023-04-18T11:53:47.954Z,6.9
2023-04-18T11:59:31.969Z,5.7
2023-04-18T12:05:17.925Z,6.3
2023-04-18T12:11:02.530Z,6.4
2023-04-18T12:16:46.590Z,6.5
2023-04-18T12:22:46.748Z,5.8
2023-04-18T12:28:30.692Z,7.1
2023-04-18T12:34:16.144Z,5.8
2023-04-18T12:40:00.047Z,6.4
2023-04-18T12:45:44.246Z,6.3
2023-04-18T12:51:28.315Z,7.2
2023-04-18T12:57:12.788Z,5.8
2023-04-18T13:02:57.598Z,6.1
2023-04-18T13:08:41.786Z,6.7
2023-04-18T13:14:25.905Z,5.9
2023-04-18T13:20:11.236Z,5.1
2023-04-18T13:25:55.386Z,5.7
2023-04-18T13:31:39.540Z,6.2
2023-04-18T13:37:23.733Z,5.3
2023-04-18T13:43:07.750Z,5.7
2023-04-18T13:48:52.635Z,5.4
2023-04-18T13:54:36.910Z,5.9
2023-04-18T14:00:21.842Z,4.5
2023-04-18T14:06:06.034Z,4.9
2023-04-18T14:11:50.134Z,4.9
2023-04-18T14:17:34.281Z,5.1
2023-04-18T14:23:18.343Z,5.9
2023-04-18T14:29:02.351Z,5
2023-04-18T14:34:46.400Z,4.9
2023-04-18T14:40:33.566Z,4.6
2023-04-18T14:46:20.623Z,4.5
2023-04-18T14:52:04.765Z,4.8
2023-04-18T14:57:49.068Z,4.5
2023-04-18T15:03:33.952Z,4.7
2023-04-18T15:09:18.046Z,5.1
2023-04-18T15:15:02.246Z,4.4
2023-04-18T15:20:46.227Z,4.8
2023-04-18T15:26:33.490Z,4.4
2023-04-18T15:32:19.105Z,4.8
2023-04-18T15:38:03.162Z,4.3
2023-04-18T15:43:47.241Z,4.3
2023-04-18T15:49:31.250Z,4.8
2023-04-18T15:55:17.206Z,4.2
2023-04-18T16:01:01.382Z,4.8
2023-04-18T16:06:45.297Z,4.6
2023-04-18T16:12:29.295Z,5.8
2023-04-18T16:18:13.535Z,6.3
2023-04-18T16:23:57.541Z,9.1
2023-04-18T16:29:41.359Z,13.2
2023-04-18T16:35:25.406Z,11.4
2023-04-18T16:41:09.639Z,14.8
2023-04-18T16:46:53.928Z,15.9
2023-04-18T16:52:37.861Z,29.4
2023-04-18T16:58:21.588Z,27
2023-04-18T17:04:06.329Z,24.3
2023-04-18T17:09:51.278Z,27
2023-04-18T17:15:35.254Z,25.9
2023-04-18T17:21:19.354Z,24.4
2023-04-18T17:27:03.129Z,21.6
2023-04-18T17:32:48.469Z,25.1
2023-04-18T17:38:31.976Z,22.9
2023-04-18T17:44:16.558Z,24.4
2023-04-18T17:50:00.708Z,19.7
2023-04-18T17:55:44.899Z,19.3
2023-04-18T18:01:29.109Z,16.3
2023-04-18T18:07:13.125Z,14.9
2023-04-18T18:12:57.295Z,17.4
2023-04-18T18:18:41.371Z,14.3
2023-04-18T18:24:25.339Z,16.4
2023-04-18T18:30:10.207Z,13.2
2023-04-18T18:35:54.028Z,13.6
2023-04-18T18:41:38.259Z,11.6
2023-04-18T18:47:22.607Z,10.2
2023-04-18T18:53:06.626Z,10.7
2023-04-18T18:58:50.655Z,11
2023-04-18T19:04:35.160Z,11
2023-04-18T19:10:19.225Z,11.7
2023-04-18T19:16:03.628Z,12.3
2023-04-18T19:21:47.646Z,10.9
2023-04-18T19:27:31.579Z,9.3
2023-04-18T19:33:15.708Z,10.5
2023-04-18T19:38:59.734Z,10.2
2023-04-18T19:44:45.060Z,11.3
2023-04-18T19:50:29.070Z,9.9
2023-04-18T19:56:13.100Z,12
2023-04-18T20:02:02.214Z,10.1
2023-04-18T20:07:48.169Z,10.1
2023-04-18T20:13:32.234Z,10.7
2023-04-18T20:19:18.468Z,10.1
2023-04-18T20:25:02.475Z,10.1
2023-04-18T20:30:46.582Z,9.9
2023-04-18T20:36:30.662Z,10.3
2023-04-18T20:42:14.690Z,12.4
2023-04-18T20:47:59.040Z,12.7
2023-04-18T20:53:43.141Z,11.1
2023-04-18T20:59:27.079Z,11.8
2023-04-18T21:05:11.564Z,11.3
2023-04-18T21:10:56.446Z,12.4
2023-04-18T21:16:40.998Z,11.7
2023-04-18T21:22:25.027Z,12.5
2023-04-18T21:28:09.145Z,12.5
2023-04-18T21:33:54.564Z,10.3
2023-04-18T21:39:38.493Z,12.9
2023-04-18T21:45:22.570Z,11.5
2023-04-18T21:51:06.806Z,12.3
2023-04-18T21:56:50.816Z,10.7
2023-04-18T22:02:35.697Z,12.9
2023-04-18T22:08:19.812Z,12
2023-04-18T22:14:03.987Z,11.9
2023-04-18T22:19:48.185Z,11.9
2023-04-18T22:25:32.135Z,11.8
2023-04-18T22:31:16.460Z,11.3
2023-04-18T22:37:00.777Z,10.6
2023-04-18T22:42:44.879Z,10.6
2023-04-18T22:48:28.862Z,11.2
2023-04-18T22:54:13.104Z,11.4
2023-04-18T22:59:57.506Z,11.8
2023-04-18T23:05:41.713Z,10.7
2023-04-18T23:11:25.787Z,10.2
2023-04-18T23:17:09.822Z,11.7
2023-04-18T23:22:54.090Z,11.7
2023-04-18T23:28:38.349Z,11.2
2023-04-18T23:34:22.525Z,11.2
2023-04-18T23:40:06.905Z,11.9
2023-04-18T23:45:52.125Z,11.4
2023-04-18T23:51:36.169Z,11.5
2023-04-18T23:57:20.226Z,11.6
